Latest Weather Observations for Adelaide Airport

IDS60901

Issued at 1:41 pm CST Sunday 1 May 2016 (issued every 10 minutes, with the page automatically refreshed every 10 minutes)

About weather observations | Map of Adelaide area stations | Latest observations for Adelaide area | Other Formats
Station Details ID: 023034 Name: ADELAIDE AIRPORT Lat: -34.95 Lon: 138.52 Height: 2.0 m
Data from the previous 72 hours. | See also: Recent months at Adelaide Airport
Date/Time
CST
Tmp

°C
App
Tmp
°C
Dew
Point
°C
Rel
Hum
%
Delta-T

°C
Wind Press
QNH
hPa
Press
MSL
hPa
Rain
since
9 am
mm
Dir
 
Spd
km/h
Gust
km/h
Spd
kts
Gust
kts
01/01:30pm 17.7 12.7 4.7 42 6.2 SW 20 30 11 16 1016.8 1016.8 0.0
01/01:00pm 17.8 11.7 4.8 42 6.2 SW 26 35 14 19 1016.7 1016.7 0.0
01/12:30pm 17.0 11.2 4.2 42 6.0 SW 24 33 13 18 1017.0 1017.0 0.0
01/12:00pm 17.5 11.1 5.2 44 5.9 SW 28 35 15 19 1017.1 1017.1 0.0
01/11:30am 17.3 10.5 4.9 44 5.9 SW 30 37 16 20 1017.3 1017.3 0.0
01/11:00am 17.6 10.4 5.1 43 6.0 SW 32 41 17 22 1017.0 1017.0 0.0
01/10:30am 17.1 9.6 4.6 43 5.9 SW 33 44 18 24 1016.9 1016.9 0.0
01/10:00am 16.7 8.7 3.7 42 6.0 WSW 35 46 19 25 1017.1 1017.1 0.0
01/09:30am 16.3 8.9 4.9 46 5.4 SW 33 44 18 24 1016.9 1016.9 0.0
01/09:00am 15.7 7.6 7.2 57 4.2 WSW 39 52 21 28 1016.7 1016.7 0.0
01/08:30am 14.1 7.7 9.2 72 2.5 W 33 44 18 24 1016.3 1016.3 0.0
01/08:18am 13.7 6.1 9.2 74 2.3 WSW 39 57 21 31 1016.3 1016.3 0.0
01/08:15am 15.7 8.9 7.9 59 3.9 WSW 33 50 18 27 1016.1 1016.1 0.0
01/08:00am 15.3 8.4 7.2 58 4.0 WSW 33 44 18 24 1015.8 1015.8 0.0
01/07:30am 13.9 6.2 8.7 71 2.6 WSW 39 59 21 32 1015.6 1015.6 0.0
01/07:02am 13.8 5.4 9.1 73 2.4 WSW 43 61 23 33 1015.2 1015.2 0.0
01/07:00am 13.8 4.8 8.8 72 2.5 WSW 46 63 25 34 1015.1 1015.1 0.0
01/06:50am 14.4 5.4 8.7 68 2.9 WSW 46 65 25 35 1015.0 1015.0 0.0
01/06:30am 14.9 7.3 7.6 61 3.6 WSW 37 48 20 26 1014.6 1014.6 0.0
01/06:00am 13.9 5.2 9.8 76 2.1 SW 46 61 25 33 1014.3 1014.3 0.0
01/05:53am 13.9 5.0 9.2 73 2.4 W 46 61 25 33 1014.3 1014.3 0.0
01/05:30am 15.6 6.6 7.3 57 4.1 W 44 57 24 31 1013.5 1013.5 0.0
01/05:00am 15.3 7.2 8.6 64 3.4 W 41 57 22 31 1012.9 1012.9 0.0
01/04:55am 15.2 7.5 8.5 64 3.4 WNW 39 57 21 31 1012.9 1012.9 0.0
01/04:30am 15.1 8.4 8.1 63 3.5 W 33 44 18 24 1012.5 1012.5 0.0
01/04:00am 14.7 6.4 7.9 63 3.4 W 41 59 22 32 1012.1 1012.1 0.0
01/03:30am 15.6 6.9 7.8 59 3.9 W 43 54 23 29 1011.5 1011.5 0.0
01/03:00am 14.3 5.9 9.6 73 2.4 W 44 63 24 34 1011.2 1011.2 0.0
01/02:30am 16.0 8.5 9.5 65 3.4 WNW 39 52 21 28 1010.6 1010.6 0.0
01/02:00am 16.0 9.2 9.2 64 3.5 WNW 35 46 19 25 1010.5 1010.5 0.0
01/01:30am 15.9 8.7 9.1 64 3.5 W 37 48 20 26 1010.5 1010.5 0.0
01/01:00am 16.1 7.9 8.2 59 4.0 W 41 56 22 30 1010.2 1010.2 0.0
01/12:30am 16.1 7.8 9.4 64 3.5 W 43 54 23 29 1009.9 1009.9 0.0
01/12:00am 16.7 7.8 9.2 61 3.9 W 46 61 25 33 1009.7 1009.7 0.0
 
Date/Time
CST
Tmp

°C
App
Tmp
°C
Dew
Point
°C
Rel
Hum
%
Delta-T

°C
Wind Press
QNH
hPa
Press
MSL
hPa
Rain
since
9 am
mm
Dir
 
Spd
km/h
Gust
km/h
Spd
kts
Gust
kts
30/11:54pm 16.8 9.1 10.2 65 3.5 W 41 59 22 32 1009.6 1009.6 0.0
30/11:30pm 16.8 8.2 11.7 72 2.8 W 48 63 26 34 1009.7 1009.7 0.0
30/11:00pm 17.3 8.9 11.0 66 3.4 W 46 67 25 36 1009.1 1009.1 0.0
30/10:53pm 17.9 9.9 10.4 61 4.0 WNW 43 67 23 36 1009.1 1009.1 0.0
30/10:30pm 17.9 10.0 11.5 66 3.5 W 44 59 24 32 1009.0 1009.0 0.0
30/10:19pm 18.1 9.6 10.7 62 4.0 W 46 61 25 33 1009.1 1009.1 0.0
30/10:07pm 17.8 9.8 11.2 65 3.6 W 44 59 24 32 1009.1 1009.1 0.0
30/10:00pm 18.1 10.0 10.0 59 4.3 W 43 65 23 35 1008.5 1008.5 0.0
30/09:32pm 18.8 11.1 8.8 52 5.2 WNW 39 59 21 32 1009.2 1009.2 0.0
30/09:30pm 18.9 12.0 10.3 57 4.6 WNW 37 54 20 29 1009.2 1009.2 0.0
30/09:00pm 19.1 9.6 9.9 55 4.9 WNW 50 69 27 37 1008.8 1008.8 0.0
30/08:38pm 19.6 12.7 11.6 60 4.4 WNW 39 57 21 31 1008.4 1008.4 0.0
30/08:30pm 19.8 12.8 11.3 58 4.7 WNW 39 56 21 30 1008.2 1008.2 0.0
30/08:00pm 20.7 13.1 10.6 52 5.5 W 41 63 22 34 1007.4 1007.4 0.0
30/07:36pm 22.4 17.0 9.4 43 7.0 WNW 28 48 15 26 1006.7 1006.7 0.0
30/07:30pm 22.2 18.1 10.1 46 6.6 WNW 22 33 12 18 1006.5 1006.5 0.0
30/07:00pm 22.9 17.7 11.5 48 6.4 NNW 30 37 16 20 1006.3 1006.3 0.0
30/06:30pm 23.4 18.8 9.6 41 7.5 NNW 24 30 13 16 1005.4 1005.4 0.0
30/06:00pm 23.7 19.0 7.8 36 8.4 NNW 22 28 12 15 1005.5 1005.5 0.0
30/05:30pm 24.3 19.2 6.0 30 9.4 NNW 22 32 12 17 1005.5 1005.5 0.0
30/05:00pm 24.7 18.9 4.2 26 10.2 NNW 24 33 13 18 1006.0 1006.0 0.0
30/04:30pm 25.1 19.1 3.3 24 10.7 NNW 24 32 13 17 1006.2 1006.2 0.0
30/04:00pm 25.2 18.0 1.0 20 11.4 NNW 28 37 15 20 1006.5 1006.5 0.0
30/03:30pm 25.5 17.4 0.9 20 11.6 NNW 33 41 18 22 1006.7 1006.7 0.0
30/03:00pm 25.3 17.3 0.4 19 11.6 NNW 32 41 17 22 1007.1 1007.1 0.0
30/02:30pm 25.7 17.6 0.9 19 11.7 NNW 33 44 18 24 1007.5 1007.5 0.0
30/02:00pm 25.4 17.2 0.2 19 11.7 NNW 33 46 18 25 1007.8 1007.8 0.0
30/01:30pm 25.6 17.2 1.8 21 11.4 NNW 35 48 19 26 1008.5 1008.5 0.0
30/01:00pm 25.2 17.3 2.4 22 11.0 NNW 33 44 18 24 1008.8 1008.8 0.0
30/12:30pm 24.8 17.7 3.4 25 10.5 NNW 30 43 16 23 1009.5 1009.5 0.0
30/12:00pm 24.6 17.8 7.0 32 9.2 N 32 39 17 21 1010.0 1010.0 0.0
30/11:30am 24.4 17.4 6.9 32 9.1 NNW 33 44 18 24 1010.8 1010.8 0.0
30/11:00am 23.5 18.5 9.7 41 7.5 N 26 33 14 18 1011.4 1011.4 0.0
30/10:30am 22.2 18.0 9.8 45 6.7 N 22 32 12 17 1011.8 1011.8 0.0
30/10:00am 21.2 17.6 10.6 50 5.8 N 20 32 11 17 1012.2 1012.2 0.0
30/09:30am 20.1 16.3 11.2 56 4.9 N 22 28 12 15 1012.5 1012.5 0.0
30/09:00am 18.7 15.4 11.0 61 4.2 NNE 19 24 10 13 1012.8 1012.8 0.0
30/08:30am 17.3 14.6 11.6 69 3.1 NNE 17 20 9 11 1012.9 1012.9 0.0
30/08:00am 15.5 12.8 11.8 78 2.0 NNE 17 19 9 10 1013.0 1013.0 0.0
30/07:30am 14.2 11.5 11.6 84 1.4 NNE 17 20 9 11 1013.0 1013.0 0.0
30/07:00am 13.6 10.8 11.3 86 1.2 NNE 17 20 9 11 1012.8 1012.8 0.0
30/06:30am 13.5 11.5 11.4 87 1.1 NNE 13 19 7 10 1012.7 1012.7 0.0
30/06:00am 14.1 11.5 11.9 86 1.2 NNE 17 22 9 12 1012.7 1012.7 0.0
30/05:30am 13.2 11.3 11.7 91 0.8 NNE 13 17 7 9 1012.7 1012.7 0.0
30/05:00am 13.4 11.6 12.1 92 0.7 NNE 13 17 7 9 1012.4 1012.4 0.0
30/04:30am 13.8 11.7 12.5 92 0.7 NNE 15 19 8 10 1012.2 1012.2 0.0
30/04:00am 13.7 11.2 12.4 92 0.7 NNE 17 19 9 10 1012.2 1012.2 0.0
30/03:30am 14.2 12.6 12.7 91 0.8 NNE 13 15 7 8 1012.0 1012.0 0.0
30/03:00am 13.3 11.5 12.0 92 0.7 NE 13 15 7 8 1012.3 1012.3 0.0
30/02:30am 13.4 11.7 12.5 94 0.5 NE 13 13 7 7 1012.4 1012.4 0.0
30/02:00am 14.5 13.7 12.9 90 0.9 NNE 9 11 5 6 1012.6 1012.6 0.0
30/01:30am 14.0 13.1 12.7 92 0.7 NE 9 13 5 7 1012.4 1012.4 0.0
30/01:00am 13.6 12.2 12.3 92 0.7 NE 11 13 6 7 1012.6 1012.6 0.0
30/12:30am 13.8 12.4 12.3 91 0.8 NE 11 13 6 7 1012.7 1012.7 0.0
30/12:00am 15.2 14.6 13.4 89 1.0 NE 9 11 5 6 1012.9 1012.9 0.0
 
Date/Time
CST
Tmp

°C
App
Tmp
°C
Dew
Point
°C
Rel
Hum
%
Delta-T

°C
Wind Press
QNH
hPa
Press
MSL
hPa
Rain
since
9 am
mm
Dir
 
Spd
km/h
Gust
km/h
Spd
kts
Gust
kts
29/11:30pm 15.2 14.1 13.2 88 1.1 NE 11 13 6 7 1012.7 1012.7 0.0
29/11:00pm 15.2 14.4 13.0 87 1.2 NNE 9 9 5 5 1012.8 1012.8 0.0
29/10:30pm 15.1 15.8 13.3 89 1.0 ENE 2 11 1 6 1013.0 1013.0 0.0
29/10:00pm 15.1 16.2 13.5 90 0.9 CALM 0 0 0 0 1012.9 1012.9 0.0
29/09:30pm 15.5 16.7 13.7 89 1.0 CALM 0 0 0 0 1012.9 1012.9 0.0
29/09:00pm 16.0 16.1 13.9 87 1.2 ENE 6 7 3 4 1012.7 1012.7 0.0
29/08:30pm 16.2 16.2 14.1 87 1.2 ENE 7 9 4 5 1012.5 1012.5 0.0
29/08:00pm 16.8 16.9 14.4 86 1.4 E 7 7 4 4 1012.4 1012.4 0.0
29/07:30pm 17.7 19.1 14.4 81 1.9 CALM 0 0 0 0 1012.2 1012.2 0.0
29/07:00pm 18.0 19.4 14.5 80 2.0 CALM 0 0 0 0 1012.0 1012.0 0.0
29/06:30pm 18.8 20.4 14.9 78 2.3 CALM 0 0 0 0 1011.7 1011.7 0.0
29/06:00pm 19.2 20.9 15.3 78 2.3 CALM 0 0 0 0 1011.5 1011.5 0.0
29/05:30pm 20.2 21.3 15.5 74 2.8 SW 4 7 2 4 1011.3 1011.3 0.0
29/05:00pm 21.2 20.6 14.7 66 3.8 WNW 11 13 6 7 1011.4 1011.4 0.0
29/04:30pm 21.6 20.8 15.0 66 3.9 WNW 13 17 7 9 1011.5 1011.5 0.0
29/04:00pm 21.5 20.2 14.9 66 3.9 WNW 15 19 8 10 1011.4 1011.4 0.0
29/03:30pm 22.5 20.0 13.5 56 5.2 NW 19 24 10 13 1011.2 1011.2 0.0
29/03:00pm 22.8 20.4 13.7 56 5.3 NW 19 26 10 14 1010.9 1010.9 0.0
29/02:30pm 23.0 20.0 13.7 55 5.4 NNW 22 28 12 15 1010.7 1010.7 0.0
29/02:00pm 22.2 19.5 13.4 57 5.1 NNW 20 30 11 16 1010.8 1010.8 0.0
29/01:30pm 23.1 19.2 13.2 53 5.7 NNW 26 33 14 18 1010.7 1010.7 0.0
29/01:00pm 21.9 18.3 13.2 57 5.0 NNW 24 33 13 18 1010.9 1010.9 0.0
29/12:30pm 21.5 17.8 12.7 57 5.0 NNW 24 32 13 17 1011.2 1011.2 0.0
29/12:00pm 21.1 18.9 13.4 61 4.4 N 17 26 9 14 1011.6 1011.6 0.0
29/11:30am 20.3 18.4 14.1 67 3.6 N 17 24 9 13 1011.9 1011.9 0.0
29/11:00am 19.6 18.7 14.8 74 2.8 N 13 19 7 10 1012.3 1012.3 0.0
29/10:30am 18.9 18.0 14.8 77 2.4 NNE 13 13 7 7 1012.3 1012.3 0.0
29/10:00am 18.3 17.6 15.4 83 1.7 NNE 13 15 7 8 1012.6 1012.6 0.0
29/09:30am 17.9 17.2 15.5 86 1.4 NNE 13 17 7 9 1012.6 1012.6 0.0
29/09:00am 18.0 17.3 15.4 85 1.5 N 13 17 7 9 1012.7 1012.7 2.8
29/08:30am 17.6 16.9 15.4 87 1.3 N 13 15 7 8 1012.9 1012.9 2.8
29/08:00am 17.3 16.5 15.2 87 1.2 NNE 13 17 7 9 1012.7 1012.7 2.8
29/07:30am 17.1 16.0 15.4 90 1.0 NNE 15 17 8 9 1012.5 1012.5 2.8
29/07:00am 17.0 15.6 15.6 91 0.8 NNE 17 22 9 12 1012.4 1012.4 2.8
29/06:30am 17.1 15.6 15.4 90 1.0 NNE 17 22 9 12 1012.3 1012.3 2.8
29/06:00am 17.2 15.9 15.7 91 0.9 NE 17 19 9 10 1012.1 1012.1 2.6
29/05:30am 17.3 16.0 15.8 91 0.9 NE 17 20 9 11 1012.1 1012.1 2.6
29/05:00am 17.6 16.9 16.4 93 0.7 NE 15 19 8 10 1012.4 1012.4 2.4
29/04:30am 18.0 16.9 16.3 90 1.0 NNE 17 19 9 10 1012.9 1012.9 1.6
29/04:00am 18.5 18.3 16.7 89 1.1 NNE 13 15 7 8 1013.0 1013.0 1.0
29/03:30am 19.2 19.3 16.5 84 1.6 N 11 15 6 8 1012.9 1012.9 0.8
29/03:00am 19.7 17.1 16.0 79 2.2 NW 24 33 13 18 1013.1 1013.1 0.6
29/02:32am 22.4 16.5 10.3 46 6.6 N 32 50 17 27 1012.7 1012.7 0.4
29/02:30am 22.5 16.3 10.0 45 6.8 N 33 50 18 27 1012.6 1012.6 0.4
29/02:24am 22.7 16.4 8.8 41 7.4 N 32 50 17 27 1012.6 1012.6 0.4
29/02:00am 22.7 18.0 6.2 34 8.4 N 20 28 11 15 1012.5 1012.5 0.4
29/01:30am 22.5 17.0 5.9 34 8.4 N 24 35 13 19 1012.1 1012.1 0.4
29/01:00am 21.8 17.1 7.8 40 7.3 NNE 22 28 12 15 1011.9 1011.9 0.4
29/12:30am 21.9 17.9 8.9 43 6.9 NE 20 28 11 15 1011.4 1011.4 0.4
29/12:00am 22.2 16.6 10.1 46 6.6 WNW 30 41 16 22 1012.5 1012.5 0.4
 
Date/Time
CST
Tmp

°C
App
Tmp
°C
Dew
Point
°C
Rel
Hum
%
Delta-T

°C
Wind Press
QNH
hPa
Press
MSL
hPa
Rain
since
9 am
mm
Dir
 
Spd
km/h
Gust
km/h
Spd
kts
Gust
kts
28/11:30pm 24.2 19.4 5.4 29 9.5 N 20 28 11 15 1011.6 1011.6 0.4
28/11:00pm 23.1 18.6 7.1 35 8.3 NNE 20 28 11 15 1010.8 1010.8 0.4
28/10:30pm 22.7 18.7 8.3 39 7.6 NE 19 22 10 12 1011.1 1011.1 0.4
28/10:00pm 22.3 18.6 9.5 44 6.9 NE 19 22 10 12 1011.4 1011.4 0.4
28/09:30pm 23.0 18.4 9.5 42 7.3 NE 24 30 13 16 1011.8 1011.8 0.4
28/09:00pm 22.4 19.0 11.3 49 6.2 NE 20 26 11 14 1012.3 1012.3 0.4
28/08:30pm 22.8 20.9 11.8 50 6.2 NNE 13 17 7 9 1012.8 1012.8 0.2
28/08:00pm 21.9 20.4 13.2 57 5.0 NE 13 19 7 10 1012.3 1012.3 0.2
28/07:30pm 22.4 19.9 13.6 57 5.1 NE 19 24 10 13 1012.3 1012.3 0.2
28/07:00pm 21.5 19.6 15.1 67 3.8 ENE 19 24 10 13 1012.3 1012.3 0.2
28/06:30pm 20.0 19.9 16.9 82 1.9 ENE 13 17 7 9 1012.8 1012.8 0.0
28/06:00pm 19.9 21.6 16.2 79 2.2 NNW 2 11 1 6 1012.8 1012.8 0.0
28/05:30pm 19.9 20.5 15.3 75 2.7 E 6 7 3 4 1012.5 1012.5 0.0
28/05:00pm 20.1 19.4 14.4 69 3.3 WSW 11 11 6 6 1012.4 1012.4 0.0
28/04:30pm 20.4 19.7 14.2 67 3.6 S 11 15 6 8 1012.4 1012.4 0.0
28/04:00pm 20.0 18.5 15.3 74 2.8 SW 17 20 9 11 1012.8 1012.8 0.0
28/03:30pm 20.5 19.0 15.4 72 3.0 SW 17 20 9 11 1012.4 1012.4 0.0
28/03:00pm 21.0 20.4 15.6 71 3.2 SW 13 19 7 10 1012.5 1012.5 0.0
28/02:30pm 21.0 20.1 14.9 68 3.6 WSW 13 15 7 8 1012.7 1012.7 0.0
28/02:00pm 21.9 20.2 14.8 64 4.2 W 17 28 9 15 1013.1 1013.1 0.0

Latest Capital City Observations: Canberra | Sydney | Melbourne | Brisbane | Adelaide | Perth | Hobart | Darwin

Other Formats:

Comma delimited format used in spreadsheet applications
http://www.bom.gov.au/fwo/IDS60901/IDS60901.94672.axf

JavaScript Object Notation format (JSON) in row-major order
http://www.bom.gov.au/fwo/IDS60901/IDS60901.94672.json